createdAt,value
2018-02-09T00:04:58.704Z,1010.9
2018-02-09T00:15:13.279Z,1010.8
2018-02-09T00:25:27.698Z,1010.9
2018-02-09T00:35:42.315Z,1010.8
2018-02-09T00:45:56.675Z,1010.7
2018-02-09T00:56:10.575Z,1010.7
2018-02-09T01:06:25.903Z,1010.7
2018-02-09T01:47:25.922Z,1010.4
2018-02-09T01:57:40.424Z,1010.3
2018-02-09T02:07:54.349Z,1010.1
2018-02-09T02:18:08.507Z,1010.2
2018-02-09T02:28:23.875Z,1010.1
2018-02-09T02:38:37.634Z,1010
2018-02-09T02:48:52.256Z,1009.9
2018-02-09T02:59:06.706Z,1009.8
2018-02-09T03:09:22.060Z,1009.7
2018-02-09T03:19:36.302Z,1009.5
2018-02-09T03:29:50.753Z,1009.4
2018-02-09T03:40:05.629Z,1009.3
2018-02-09T03:50:19.783Z,1009.3
2018-02-09T04:00:34.324Z,1009.2
2018-02-09T04:10:47.931Z,1009.1
2018-02-09T04:21:03.298Z,1009
2018-02-09T04:31:18.151Z,1009
2018-02-09T04:41:33.208Z,1008.9
2018-02-09T04:51:47.995Z,1008.9
2018-02-09T05:02:03.138Z,1008.8
2018-02-09T05:12:17.919Z,1008.7
2018-02-09T05:22:32.948Z,1008.7
2018-02-09T05:32:48.484Z,1008.6
2018-02-09T05:43:03.152Z,1008.5
2018-02-09T05:53:17.379Z,1008.4
2018-02-09T06:03:32.639Z,1008.3
2018-02-09T06:13:48.232Z,1008.3
2018-02-09T06:24:03.453Z,1008.3
2018-02-09T06:34:17.189Z,1008.2
2018-02-09T06:44:31.323Z,1008.3
2018-02-09T06:54:45.465Z,1008.3
2018-02-09T07:04:59.168Z,1008.1
2018-02-09T07:15:14.725Z,1008.1
2018-02-09T07:25:28.929Z,1007.9
2018-02-09T07:35:43.521Z,1007.9
2018-02-09T07:45:57.894Z,1007.8
2018-02-09T07:56:13.401Z,1007.8
2018-02-09T08:06:28.456Z,1007.8
2018-02-09T08:16:42.932Z,1007.7
2018-02-09T08:26:58.393Z,1007.6
2018-02-09T08:37:13.683Z,1007.5
2018-02-09T08:47:28.698Z,1007.5
2018-02-09T08:57:43.165Z,1007.5
2018-02-09T09:07:57.606Z,1007.4
2018-02-09T09:18:12.918Z,1007.2
2018-02-09T09:28:27.890Z,1007.3
2018-02-09T09:38:42.869Z,1007.2
2018-02-09T09:48:56.923Z,1007.2
2018-02-09T09:59:12.095Z,1007.1
2018-02-09T10:09:26.086Z,1007.1
2018-02-09T10:19:39.944Z,1006.9
2018-02-09T10:29:55.401Z,1006.9
2018-02-09T10:40:10.129Z,1006.8
2018-02-09T10:50:23.876Z,1006.7
2018-02-09T11:00:38.391Z,1006.7
2018-02-09T11:10:53.447Z,1006.6
2018-02-09T11:21:08.520Z,1006.7
2018-02-09T11:31:24.190Z,1006.6
2018-02-09T11:41:39.464Z,1006.5
2018-02-09T11:51:54.901Z,1006.4
2018-02-09T12:02:09.393Z,1006.3
2018-02-09T12:12:24.921Z,1006.3
2018-02-09T12:22:39.621Z,1006.1
2018-02-09T12:43:09.753Z,1006
2018-02-09T12:53:25.409Z,1006
2018-02-09T13:03:39.810Z,1006
2018-02-09T13:13:53.743Z,1006
2018-02-09T13:24:08.180Z,1005.9
2018-02-09T13:34:23.170Z,1005.8
2018-02-09T13:44:37.180Z,1005.7
2018-02-09T13:54:52.620Z,1005.7
2018-02-09T14:15:21.084Z,1005.5
2018-02-09T14:25:35.205Z,1005.5
2018-02-09T14:46:03.530Z,1005.5
2018-02-09T14:56:18.357Z,1005.5
2018-02-09T15:06:32.048Z,1005.5
2018-02-09T15:16:47.699Z,1005.4
2018-02-09T15:27:03.115Z,1005.5
2018-02-09T15:37:17.024Z,1005.4
2018-02-09T15:47:31.864Z,1005.3
2018-02-09T15:57:47.186Z,1005.3
2018-02-09T16:08:01.654Z,1005.3
2018-02-09T16:18:15.016Z,1005.3
2018-02-09T16:28:30.235Z,1005.3
2018-02-09T16:38:44.877Z,1005.3
2018-02-09T16:48:59.273Z,1005.4
2018-02-09T16:59:13.409Z,1005.6
2018-02-09T17:09:28.905Z,1005.6
2018-02-09T17:19:43.558Z,1005.7
2018-02-09T17:50:27.937Z,1005.8
2018-02-09T18:00:43.149Z,1005.8
2018-02-09T18:10:58.327Z,1005.9
2018-02-09T18:21:12.802Z,1006.1
2018-02-09T18:41:40.736Z,1006.2
2018-02-09T18:51:55.609Z,1006.2
2018-02-09T19:02:09.947Z,1006.1
2018-02-09T19:12:23.918Z,1006.2
2018-02-09T19:22:39.493Z,1006.3
2018-02-09T19:32:55.021Z,1006.3
2018-02-09T19:43:10.170Z,1006.3
2018-02-09T19:53:24.763Z,1006.3
2018-02-09T20:03:39.933Z,1006.3
2018-02-09T20:13:53.639Z,1006.4
2018-02-09T20:24:07.269Z,1006.3
2018-02-09T20:34:22.577Z,1006.2
2018-02-09T20:44:37.372Z,1006.3
2018-02-09T20:54:51.032Z,1006.3
2018-02-09T21:05:04.768Z,1006.3
2018-02-09T21:15:19.114Z,1006.3
2018-02-09T21:25:34.298Z,1006.4
2018-02-09T21:35:48.136Z,1006.4
2018-02-09T21:46:02.033Z,1006.4
2018-02-09T21:56:17.097Z,1006.4
2018-02-09T22:06:32.119Z,1006.5
2018-02-09T22:16:46.626Z,1006.5
2018-02-09T22:27:01.279Z,1006.5
2018-02-09T22:37:15.009Z,1006.6
2018-02-09T22:47:29.922Z,1006.5
2018-02-09T22:57:43.680Z,1006.5
2018-02-09T23:07:57.554Z,1006.6
2018-02-09T23:18:11.264Z,1006.6
2018-02-09T23:28:25.673Z,1006.6
2018-02-09T23:38:40.506Z,1006.6
2018-02-09T23:48:54.186Z,1006.7
2018-02-09T23:59:09.689Z,1006.7
